This is the latest recevied weather packets stored in our database for station/object K0WOI. If no packets are shown the sender has not sent any weather packets the latest 1 day(s).
| Time | Temp. | Humidity | Pressure | Rain* | Wind** | Luminosity | Snow |
|---|---|---|---|---|---|---|---|
| 1778061450 | 3.33° C | 74% | 1015.4 hPa | 0 mm | - | 0 W/m² | - |
| 1778060240 | 3.89° C | 70% | 1015.1 hPa | 0 mm | - | 0 W/m² | - |
| 1778059332 | 3.89° C | 69% | 1015.2 hPa | 0 mm | - | 0 W/m² | - |
| 1778058121 | 3.89° C | 66% | 1015 hPa | 0 mm | - | 0 W/m² | - |
| 1778057818 | 3.89° C | 68% | 1015 hPa | 0 mm | - | 0 W/m² | - |
| 1778056604 | 3.89° C | 68% | 1014.9 hPa | 0 mm | - | 0 W/m² | - |
| 1778056302 | 3.89° C | 68% | 1014.8 hPa | 0 mm | - | 0 W/m² | - |
| 1778055694 | 3.33° C | 70% | 1014.4 hPa | 0 mm | - | 0 W/m² | - |
| 1778055090 | 3.33° C | 72% | 1014.4 hPa | 0 mm | - | 0 W/m² | - |
| 1778054484 | 2.78° C | 80% | 1014.2 hPa | 0 mm | - | 0 W/m² | - |
| 1778053878 | 2.22° C | 90% | 1014.2 hPa | 0 mm | - | 0 W/m² | - |
| 1778053576 | 2.22° C | 90% | 1014.3 hPa | 0 mm | - | 0 W/m² | - |
| 1778053273 | 2.22° C | 90% | 1014.2 hPa | 0 mm | - | 0 W/m² | - |
| 1778052668 | 2.22° C | 89% | 1014.4 hPa | 0 mm | - | 0 W/m² | - |
| 1778052364 | 2.22° C | 88% | 1014.3 hPa | 0 mm | - | 0 W/m² | - |
| 1778051457 | 2.78° C | 87% | 1014.3 hPa | 0 mm | - | 0 W/m² | - |
| 1778051154 | 2.78° C | 86% | 1014.2 hPa | 0 mm | - | 0 W/m² | - |
| 1778050851 | 2.78° C | 86% | 1014.2 hPa | 0 mm | - | 0 W/m² | - |
| 1778050549 | 2.78° C | 83% | 1014.4 hPa | 0 mm | - | 0 W/m² | - |
| 1778049942 | 2.78° C | 82% | 1014.4 hPa | 0 mm | - | 0 W/m² | - |
| 1778049638 | 2.78° C | 81% | 1014.3 hPa | 0 mm | - | 0 W/m² | - |
| 1778048428 | 3.33° C | 76% | 1014.2 hPa | 0 mm | - | 0 W/m² | - |
| 1778048124 | 3.89° C | 76% | 1014.3 hPa | 0 mm | - | 0 W/m² | - |
| 1778047822 | 3.89° C | 70% | 1014.2 hPa | 0 mm | - | 0 W/m² | - |
| 1778047217 | 4.44° C | 70% | 1014.1 hPa | 0 mm | - | 0 W/m² | - |
* Rain latest hour (hover to see other rain measurements)
** Current wind speed in m/s (hover to see current wind gust speed)